sensor_id;sensor_type;location;lat;lon;timestamp;P1;durP1;ratioP1;P2;durP2;ratioP2
1014;SDS011;8170;48.118;11.628;2023-04-03T00:00:16;15.23;;;11.90;;
1014;SDS011;8170;48.118;11.628;2023-04-03T00:01:18;14.98;;;12.68;;
1014;SDS011;8170;48.118;11.628;2023-04-03T00:02:21;14.10;;;12.32;;
1014;SDS011;8170;48.118;11.628;2023-04-03T00:03:24;13.98;;;12.23;;
1014;SDS011;8170;48.118;11.628;2023-04-03T00:04:27;14.75;;;12.65;;
1014;SDS011;8170;48.118;11.628;2023-04-03T00:05:31;13.73;;;11.30;;
1014;SDS011;8170;48.118;11.628;2023-04-03T00:06:35;13.50;;;10.93;;
1014;SDS011;8170;48.118;11.628;2023-04-03T00:07:38;16.73;;;13.15;;
1014;SDS011;8170;48.118;11.628;2023-04-03T00:08:40;14.23;;;11.95;;
1014;SDS011;8170;48.118;11.628;2023-04-03T00:09:44;15.63;;;12.20;;
1014;SDS011;8170;48.118;11.628;2023-04-03T00:10:46;15.20;;;12.35;;
1014;SDS011;8170;48.118;11.628;2023-04-03T00:11:50;13.65;;;11.80;;
1014;SDS011;8170;48.118;11.628;2023-04-03T00:12:52;14.07;;;12.68;;
1014;SDS011;8170;48.118;11.628;2023-04-03T00:13:55;14.93;;;12.18;;
1014;SDS011;8170;48.118;11.628;2023-04-03T00:14:57;14.90;;;12.18;;
1014;SDS011;8170;48.118;11.628;2023-04-03T00:16:00;14.85;;;13.20;;
1014;SDS011;8170;48.118;11.628;2023-04-03T00:17:04;14.43;;;11.27;;
1014;SDS011;8170;48.118;11.628;2023-04-03T00:18:08;13.75;;;11.52;;
1014;SDS011;8170;48.118;11.628;2023-04-03T00:19:10;17.50;;;11.98;;
1014;SDS011;8170;48.118;11.628;2023-04-03T00:20:14;13.98;;;12.40;;
1014;SDS011;8170;48.118;11.628;2023-04-03T00:21:16;12.02;;;10.82;;
1014;SDS011;8170;48.118;11.628;2023-04-03T00:22:21;13.88;;;11.80;;
1014;SDS011;8170;48.118;11.628;2023-04-03T00:23:23;13.82;;;11.77;;
1014;SDS011;8170;48.118;11.628;2023-04-03T00:24:26;14.50;;;12.27;;
1014;SDS011;8170;48.118;11.628;2023-04-03T00:25:28;14.32;;;11.38;;
1014;SDS011;8170;48.118;11.628;2023-04-03T00:26:31;15.20;;;12.70;;
1014;SDS011;8170;48.118;11.628;2023-04-03T00:27:35;17.13;;;11.98;;
1014;SDS011;8170;48.118;11.628;2023-04-03T00:28:38;16.48;;;12.48;;
1014;SDS011;8170;48.118;11.628;2023-04-03T00:29:41;15.88;;;12.50;;
1014;SDS011;8170;48.118;11.628;2023-04-03T00:30:44;16.30;;;11.80;;
1014;SDS011;8170;48.118;11.628;2023-04-03T00:31:47;14.00;;;12.10;;
1014;SDS011;8170;48.118;11.628;2023-04-03T00:32:50;17.35;;;13.20;;
1014;SDS011;8170;48.118;11.628;2023-04-03T00:33:53;18.58;;;13.55;;
1014;SDS011;8170;48.118;11.628;2023-04-03T00:34:57;15.25;;;12.88;;
1014;SDS011;8170;48.118;11.628;2023-04-03T00:35:59;13.77;;;11.95;;
1014;SDS011;8170;48.118;11.628;2023-04-03T00:37:07;12.80;;;11.25;;
1014;SDS011;8170;48.118;11.628;2023-04-03T00:38:10;14.30;;;12.07;;
1014;SDS011;8170;48.118;11.628;2023-04-03T00:39:14;15.45;;;12.10;;
1014;SDS011;8170;48.118;11.628;2023-04-03T00:40:16;15.18;;;13.15;;
1014;SDS011;8170;48.118;11.628;2023-04-03T00:41:19;13.32;;;11.90;;
1014;SDS011;8170;48.118;11.628;2023-04-03T00:42:22;12.20;;;10.93;;
1014;SDS011;8170;48.118;11.628;2023-04-03T00:43:26;13.60;;;12.20;;
1014;SDS011;8170;48.118;11.628;2023-04-03T00:46:08;15.30;;;11.02;;
1014;SDS011;8170;48.118;11.628;2023-04-03T00:47:13;12.23;;;10.93;;
1014;SDS011;8170;48.118;11.628;2023-04-03T00:48:18;16.52;;;10.88;;
1014;SDS011;8170;48.118;11.628;2023-04-03T00:49:24;14.15;;;10.82;;
1014;SDS011;8170;48.118;11.628;2023-04-03T00:50:27;13.50;;;11.63;;
1014;SDS011;8170;48.118;11.628;2023-04-03T00:51:31;15.88;;;12.38;;
1014;SDS011;8170;48.118;11.628;2023-04-03T00:52:35;12.77;;;11.27;;
1014;SDS011;8170;48.118;11.628;2023-04-03T00:53:41;13.05;;;11.70;;
1014;SDS011;8170;48.118;11.628;2023-04-03T00:54:50;13.75;;;11.20;;
1014;SDS011;8170;48.118;11.628;2023-04-03T00:55:56;14.70;;;11.45;;
1014;SDS011;8170;48.118;11.628;2023-04-03T00:57:00;12.52;;;11.18;;
1014;SDS011;8170;48.118;11.628;2023-04-03T00:58:02;13.40;;;11.48;;
1014;SDS011;8170;48.118;11.628;2023-04-03T00:59:10;14.93;;;11.75;;
1014;SDS011;8170;48.118;11.628;2023-04-03T01:00:17;13.48;;;11.40;;
1014;SDS011;8170;48.118;11.628;2023-04-03T01:01:22;11.52;;;10.32;;
1014;SDS011;8170;48.118;11.628;2023-04-03T01:02:28;14.85;;;12.07;;
1014;SDS011;8170;48.118;11.628;2023-04-03T01:03:30;13.13;;;11.40;;
1014;SDS011;8170;48.118;11.628;2023-04-03T01:04:36;13.80;;;12.40;;
1014;SDS011;8170;48.118;11.628;2023-04-03T01:05:40;13.48;;;12.05;;
1014;SDS011;8170;48.118;11.628;2023-04-03T01:06:44;14.07;;;11.60;;
1014;SDS011;8170;48.118;11.628;2023-04-03T01:07:46;15.35;;;12.77;;
1014;SDS011;8170;48.118;11.628;2023-04-03T01:08:53;15.30;;;11.45;;
1014;SDS011;8170;48.118;11.628;2023-04-03T01:09:57;12.18;;;10.90;;
1014;SDS011;8170;48.118;11.628;2023-04-03T01:11:01;17.48;;;11.65;;
1014;SDS011;8170;48.118;11.628;2023-04-03T01:12:13;13.02;;;10.85;;
1014;SDS011;8170;48.118;11.628;2023-04-03T01:13:19;12.32;;;10.48;;
1014;SDS011;8170;48.118;11.628;2023-04-03T01:14:24;13.32;;;11.20;;
1014;SDS011;8170;48.118;11.628;2023-04-03T01:15:27;12.70;;;11.40;;
1014;SDS011;8170;48.118;11.628;2023-04-03T01:16:32;14.10;;;10.88;;
1014;SDS011;8170;48.118;11.628;2023-04-03T01:17:37;16.60;;;11.82;;
1014;SDS011;8170;48.118;11.628;2023-04-03T01:18:41;12.15;;;10.57;;
1014;SDS011;8170;48.118;11.628;2023-04-03T01:19:46;13.10;;;11.57;;
1014;SDS011;8170;48.118;11.628;2023-04-03T01:21:11;17.55;;;12.23;;
1014;SDS011;8170;48.118;11.628;2023-04-03T01:22:38;13.88;;;12.27;;
1014;SDS011;8170;48.118;11.628;2023-04-03T01:23:49;12.90;;;11.32;;
1014;SDS011;8170;48.118;11.628;2023-04-03T01:25:02;12.45;;;11.18;;
1014;SDS011;8170;48.118;11.628;2023-04-03T01:26:05;12.48;;;11.18;;
1014;SDS011;8170;48.118;11.628;2023-04-03T01:27:09;12.80;;;11.50;;
1014;SDS011;8170;48.118;11.628;2023-04-03T01:28:14;14.55;;;11.50;;
1014;SDS011;8170;48.118;11.628;2023-04-03T01:29:18;14.77;;;11.70;;
1014;SDS011;8170;48.118;11.628;2023-04-03T01:30:21;15.13;;;11.00;;
1014;SDS011;8170;48.118;11.628;2023-04-03T01:31:30;14.45;;;11.65;;
1014;SDS011;8170;48.118;11.628;2023-04-03T01:32:42;13.48;;;11.20;;
1014;SDS011;8170;48.118;11.628;2023-04-03T01:33:46;11.88;;;10.57;;
1014;SDS011;8170;48.118;11.628;2023-04-03T01:34:49;12.95;;;10.57;;
1014;SDS011;8170;48.118;11.628;2023-04-03T01:35:55;14.20;;;11.70;;
1014;SDS011;8170;48.118;11.628;2023-04-03T01:36:58;13.02;;;11.15;;
1014;SDS011;8170;48.118;11.628;2023-04-03T01:38:01;13.48;;;11.95;;
1014;SDS011;8170;48.118;11.628;2023-04-03T01:39:04;11.40;;;9.98;;
1014;SDS011;8170;48.118;11.628;2023-04-03T01:40:10;11.13;;;9.98;;
1014;SDS011;8170;48.118;11.628;2023-04-03T01:41:12;14.60;;;12.73;;
1014;SDS011;8170;48.118;11.628;2023-04-03T01:42:17;13.25;;;11.35;;
1014;SDS011;8170;48.118;11.628;2023-04-03T01:43:19;12.98;;;11.05;;
1014;SDS011;8170;48.118;11.628;2023-04-03T01:44:26;13.35;;;11.95;;
1014;SDS011;8170;48.118;11.628;2023-04-03T01:45:28;14.35;;;11.02;;
1014;SDS011;8170;48.118;11.628;2023-04-03T01:46:32;13.25;;;11.40;;
1014;SDS011;8170;48.118;11.628;2023-04-03T01:47:36;11.68;;;10.18;;
1014;SDS011;8170;48.118;11.628;2023-04-03T01:48:40;13.23;;;11.80;;
1014;SDS011;8170;48.118;11.628;2023-04-03T01:49:42;12.98;;;11.57;;
1014;SDS011;8170;48.118;11.628;2023-04-03T01:50:45;12.95;;;11.55;;
1014;SDS011;8170;48.118;11.628;2023-04-03T01:51:48;15.95;;;12.45;;
1014;SDS011;8170;48.118;11.628;2023-04-03T01:52:51;14.93;;;12.05;;
1014;SDS011;8170;48.118;11.628;2023-04-03T01:53:53;12.23;;;10.85;;
1014;SDS011;8170;48.118;11.628;2023-04-03T01:54:56;12.35;;;10.52;;
1014;SDS011;8170;48.118;11.628;2023-04-03T01:55:58;14.85;;;11.45;;
1014;SDS011;8170;48.118;11.628;2023-04-03T01:57:02;14.60;;;11.23;;
1014;SDS011;8170;48.118;11.628;2023-04-03T01:58:05;13.25;;;11.65;;
1014;SDS011;8170;48.118;11.628;2023-04-03T01:59:08;12.57;;;11.15;;
1014;SDS011;8170;48.118;11.628;2023-04-03T02:00:12;11.45;;;10.20;;
1014;SDS011;8170;48.118;11.628;2023-04-03T02:01:16;19.00;;;12.07;;
1014;SDS011;8170;48.118;11.628;2023-04-03T02:02:18;12.95;;;11.57;;
1014;SDS011;8170;48.118;11.628;2023-04-03T02:03:23;13.43;;;11.80;;
1014;SDS011;8170;48.118;11.628;2023-04-03T02:04:25;14.50;;;12.63;;
1014;SDS011;8170;48.118;11.628;2023-04-03T02:05:28;13.30;;;11.57;;
1014;SDS011;8170;48.118;11.628;2023-04-03T02:06:30;13.38;;;10.85;;
1014;SDS011;8170;48.118;11.628;2023-04-03T02:07:34;12.90;;;11.60;;
1014;SDS011;8170;48.118;11.628;2023-04-03T02:08:36;12.52;;;11.05;;
1014;SDS011;8170;48.118;11.628;2023-04-03T02:09:40;13.38;;;11.15;;
1014;SDS011;8170;48.118;11.628;2023-04-03T02:10:42;14.23;;;11.35;;
1014;SDS011;8170;48.118;11.628;2023-04-03T02:11:46;12.23;;;10.93;;
1014;SDS011;8170;48.118;11.628;2023-04-03T02:12:49;11.88;;;10.50;;
1014;SDS011;8170;48.118;11.628;2023-04-03T02:13:52;12.02;;;10.80;;
1014;SDS011;8170;48.118;11.628;2023-04-03T02:14:55;12.13;;;10.82;;
1014;SDS011;8170;48.118;11.628;2023-04-03T02:15:57;12.77;;;10.45;;
1014;SDS011;8170;48.118;11.628;2023-04-03T02:17:00;12.60;;;11.30;;
1014;SDS011;8170;48.118;11.628;2023-04-03T02:18:06;11.77;;;10.55;;
1014;SDS011;8170;48.118;11.628;2023-04-03T02:19:11;14.02;;;11.52;;
1014;SDS011;8170;48.118;11.628;2023-04-03T02:20:14;12.05;;;10.75;;
1014;SDS011;8170;48.118;11.628;2023-04-03T02:21:18;12.00;;;10.80;;
1014;SDS011;8170;48.118;11.628;2023-04-03T02:22:21;11.88;;;10.55;;
1014;SDS011;8170;48.118;11.628;2023-04-03T02:23:25;12.93;;;10.93;;
1014;SDS011;8170;48.118;11.628;2023-04-03T02:24:27;12.80;;;11.02;;
1014;SDS011;8170;48.118;11.628;2023-04-03T02:25:30;12.25;;;10.68;;
1014;SDS011;8170;48.118;11.628;2023-04-03T02:26:33;13.88;;;12.30;;
1014;SDS011;8170;48.118;11.628;2023-04-03T02:27:36;12.63;;;11.25;;
1014;SDS011;8170;48.118;11.628;2023-04-03T02:28:38;11.77;;;10.32;;
1014;SDS011;8170;48.118;11.628;2023-04-03T02:29:42;10.95;;;9.70;;
1014;SDS011;8170;48.118;11.628;2023-04-03T02:30:45;12.52;;;10.18;;
1014;SDS011;8170;48.118;11.628;2023-04-03T02:31:49;11.45;;;9.95;;
1014;SDS011;8170;48.118;11.628;2023-04-03T02:32:52;12.07;;;10.50;;
1014;SDS011;8170;48.118;11.628;2023-04-03T02:33:55;12.00;;;10.13;;
1014;SDS011;8170;48.118;11.628;2023-04-03T02:34:58;11.10;;;9.23;;
1014;SDS011;8170;48.118;11.628;2023-04-03T02:36:02;12.68;;;9.18;;
1014;SDS011;8170;48.118;11.628;2023-04-03T02:37:06;10.20;;;9.13;;
1014;SDS011;8170;48.118;11.628;2023-04-03T02:38:09;10.52;;;9.07;;
1014;SDS011;8170;48.118;11.628;2023-04-03T02:39:11;9.38;;;8.48;;
1014;SDS011;8170;48.118;11.628;2023-04-03T02:40:15;11.02;;;9.07;;
1014;SDS011;8170;48.118;11.628;2023-04-03T02:41:17;11.20;;;8.98;;
1014;SDS011;8170;48.118;11.628;2023-04-03T02:42:23;8.48;;;7.63;;
1014;SDS011;8170;48.118;11.628;2023-04-03T02:43:26;9.63;;;7.80;;
1014;SDS011;8170;48.118;11.628;2023-04-03T02:44:29;9.93;;;8.75;;
1014;SDS011;8170;48.118;11.628;2023-04-03T02:45:31;8.60;;;7.80;;
1014;SDS011;8170;48.118;11.628;2023-04-03T02:46:35;9.80;;;7.75;;
1014;SDS011;8170;48.118;11.628;2023-04-03T02:47:37;10.30;;;8.45;;
1014;SDS011;8170;48.118;11.628;2023-04-03T02:48:41;10.38;;;8.18;;
1014;SDS011;8170;48.118;11.628;2023-04-03T02:49:43;9.32;;;8.35;;
1014;SDS011;8170;48.118;11.628;2023-04-03T02:50:48;7.70;;;6.90;;
1014;SDS011;8170;48.118;11.628;2023-04-03T02:51:51;8.73;;;7.43;;
1014;SDS011;8170;48.118;11.628;2023-04-03T02:52:54;8.40;;;7.60;;
1014;SDS011;8170;48.118;11.628;2023-04-03T02:53:56;8.90;;;8.05;;
1014;SDS011;8170;48.118;11.628;2023-04-03T02:55:03;7.50;;;6.80;;
1014;SDS011;8170;48.118;11.628;2023-04-03T02:56:06;7.68;;;6.88;;
1014;SDS011;8170;48.118;11.628;2023-04-03T02:57:09;8.02;;;6.85;;
1014;SDS011;8170;48.118;11.628;2023-04-03T02:58:12;8.38;;;7.47;;
1014;SDS011;8170;48.118;11.628;2023-04-03T02:59:15;7.82;;;7.03;;
1014;SDS011;8170;48.118;11.628;2023-04-03T03:00:18;7.07;;;6.38;;
1014;SDS011;8170;48.118;11.628;2023-04-03T03:01:22;7.30;;;6.60;;
1014;SDS011;8170;48.118;11.628;2023-04-03T03:02:24;8.00;;;7.20;;
1014;SDS011;8170;48.118;11.628;2023-04-03T03:03:27;7.53;;;6.82;;
1014;SDS011;8170;48.118;11.628;2023-04-03T03:04:29;8.15;;;6.40;;
1014;SDS011;8170;48.118;11.628;2023-04-03T03:05:33;8.20;;;7.40;;
1014;SDS011;8170;48.118;11.628;2023-04-03T03:07:40;8.63;;;6.95;;
1014;SDS011;8170;48.118;11.628;2023-04-03T03:08:42;7.72;;;6.60;;
1014;SDS011;8170;48.118;11.628;2023-04-03T03:09:45;7.35;;;6.40;;
1014;SDS011;8170;48.118;11.628;2023-04-03T03:10:48;7.95;;;7.15;;
1014;SDS011;8170;48.118;11.628;2023-04-03T03:11:52;9.15;;;6.40;;
1014;SDS011;8170;48.118;11.628;2023-04-03T03:12:54;7.28;;;6.45;;
1014;SDS011;8170;48.118;11.628;2023-04-03T03:13:57;7.32;;;6.63;;
1014;SDS011;8170;48.118;11.628;2023-04-03T03:15:00;9.20;;;6.53;;
1014;SDS011;8170;48.118;11.628;2023-04-03T03:16:03;6.90;;;6.18;;
1014;SDS011;8170;48.118;11.628;2023-04-03T03:17:06;7.35;;;6.55;;
1014;SDS011;8170;48.118;11.628;2023-04-03T03:18:10;7.20;;;6.15;;
1014;SDS011;8170;48.118;11.628;2023-04-03T03:19:12;7.78;;;6.95;;
1014;SDS011;8170;48.118;11.628;2023-04-03T03:20:15;6.97;;;6.28;;
1014;SDS011;8170;48.118;11.628;2023-04-03T03:21:18;6.78;;;6.07;;
1014;SDS011;8170;48.118;11.628;2023-04-03T03:22:21;7.95;;;5.93;;
1014;SDS011;8170;48.118;11.628;2023-04-03T03:23:25;8.13;;;6.40;;
1014;SDS011;8170;48.118;11.628;2023-04-03T03:24:29;6.78;;;6.07;;
1014;SDS011;8170;48.118;11.628;2023-04-03T03:25:33;7.88;;;6.55;;
1014;SDS011;8170;48.118;11.628;2023-04-03T03:27:38;8.63;;;6.85;;
1014;SDS011;8170;48.118;11.628;2023-04-03T03:28:41;7.80;;;6.85;;
1014;SDS011;8170;48.118;11.628;2023-04-03T03:29:45;8.52;;;5.80;;
1014;SDS011;8170;48.118;11.628;2023-04-03T03:30:48;6.50;;;5.85;;
1014;SDS011;8170;48.118;11.628;2023-04-03T03:31:52;6.53;;;5.93;;
1014;SDS011;8170;48.118;11.628;2023-04-03T03:32:54;7.88;;;6.75;;
1014;SDS011;8170;48.118;11.628;2023-04-03T03:33:57;7.88;;;5.45;;
1014;SDS011;8170;48.118;11.628;2023-04-03T03:34:59;6.65;;;5.53;;
1014;SDS011;8170;48.118;11.628;2023-04-03T03:36:02;8.35;;;6.07;;
1014;SDS011;8170;48.118;11.628;2023-04-03T03:37:05;6.22;;;5.63;;
1014;SDS011;8170;48.118;11.628;2023-04-03T03:38:08;6.43;;;5.82;;
1014;SDS011;8170;48.118;11.628;2023-04-03T03:39:12;7.20;;;5.78;;
1014;SDS011;8170;48.118;11.628;2023-04-03T03:40:16;7.07;;;6.38;;
1014;SDS011;8170;48.118;11.628;2023-04-03T03:41:18;6.63;;;5.78;;
1014;SDS011;8170;48.118;11.628;2023-04-03T03:42:22;8.48;;;6.20;;
1014;SDS011;8170;48.118;11.628;2023-04-03T03:43:24;7.75;;;6.18;;
1014;SDS011;8170;48.118;11.628;2023-04-03T03:44:28;6.43;;;5.82;;
1014;SDS011;8170;48.118;11.628;2023-04-03T03:45:31;6.55;;;5.75;;
1014;SDS011;8170;48.118;11.628;2023-04-03T03:46:33;5.97;;;5.38;;
1014;SDS011;8170;48.118;11.628;2023-04-03T03:47:40;6.85;;;5.70;;
1014;SDS011;8170;48.118;11.628;2023-04-03T03:48:43;6.95;;;6.22;;
1014;SDS011;8170;48.118;11.628;2023-04-03T03:49:53;6.93;;;6.22;;
1014;SDS011;8170;48.118;11.628;2023-04-03T03:50:56;7.03;;;6.03;;
1014;SDS011;8170;48.118;11.628;2023-04-03T03:52:04;7.35;;;5.82;;
1014;SDS011;8170;48.118;11.628;2023-04-03T03:53:07;6.30;;;5.30;;
1014;SDS011;8170;48.118;11.628;2023-04-03T03:54:09;8.80;;;5.93;;
1014;SDS011;8170;48.118;11.628;2023-04-03T03:55:14;7.40;;;6.55;;
1014;SDS011;8170;48.118;11.628;2023-04-03T03:56:17;7.10;;;5.75;;
1014;SDS011;8170;48.118;11.628;2023-04-03T03:57:20;6.60;;;5.43;;
1014;SDS011;8170;48.118;11.628;2023-04-03T03:58:23;5.72;;;5.18;;
1014;SDS011;8170;48.118;11.628;2023-04-03T03:59:26;6.10;;;5.50;;
1014;SDS011;8170;48.118;11.628;2023-04-03T04:00:28;6.57;;;5.85;;
1014;SDS011;8170;48.118;11.628;2023-04-03T04:01:32;6.18;;;5.57;;
1014;SDS011;8170;48.118;11.628;2023-04-03T04:02:35;6.13;;;5.53;;
1014;SDS011;8170;48.118;11.628;2023-04-03T04:03:38;7.15;;;6.20;;
1014;SDS011;8170;48.118;11.628;2023-04-03T04:04:42;6.80;;;6.07;;
1014;SDS011;8170;48.118;11.628;2023-04-03T04:05:45;6.70;;;6.05;;
1014;SDS011;8170;48.118;11.628;2023-04-03T04:06:48;9.25;;;5.57;;
1014;SDS011;8170;48.118;11.628;2023-04-03T04:07:51;6.03;;;5.43;;
1014;SDS011;8170;48.118;11.628;2023-04-03T04:08:53;6.28;;;5.68;;
1014;SDS011;8170;48.118;11.628;2023-04-03T04:09:56;6.40;;;5.55;;
1014;SDS011;8170;48.118;11.628;2023-04-03T04:11:00;6.88;;;5.28;;
1014;SDS011;8170;48.118;11.628;2023-04-03T04:12:03;8.68;;;5.90;;
1014;SDS011;8170;48.118;11.628;2023-04-03T04:13:07;7.93;;;5.68;;
1014;SDS011;8170;48.118;11.628;2023-04-03T04:14:10;6.88;;;5.75;;
1014;SDS011;8170;48.118;11.628;2023-04-03T04:15:15;7.28;;;6.05;;
1014;SDS011;8170;48.118;11.628;2023-04-03T04:16:17;6.03;;;5.32;;
1014;SDS011;8170;48.118;11.628;2023-04-03T04:17:20;8.05;;;5.43;;
1014;SDS011;8170;48.118;11.628;2023-04-03T04:18:23;6.50;;;5.88;;
1014;SDS011;8170;48.118;11.628;2023-04-03T04:19:26;6.35;;;5.72;;
1014;SDS011;8170;48.118;11.628;2023-04-03T04:20:28;6.55;;;5.55;;
1014;SDS011;8170;48.118;11.628;2023-04-03T04:21:32;6.47;;;5.65;;
1014;SDS011;8170;48.118;11.628;2023-04-03T04:22:34;6.65;;;5.22;;
1014;SDS011;8170;48.118;11.628;2023-04-03T04:23:37;8.07;;;5.60;;
1014;SDS011;8170;48.118;11.628;2023-04-03T04:24:39;5.55;;;5.05;;
1014;SDS011;8170;48.118;11.628;2023-04-03T04:25:44;7.03;;;5.85;;
1014;SDS011;8170;48.118;11.628;2023-04-03T04:26:48;6.15;;;5.50;;
1014;SDS011;8170;48.118;11.628;2023-04-03T04:27:52;6.35;;;5.75;;
1014;SDS011;8170;48.118;11.628;2023-04-03T04:28:54;6.82;;;5.53;;
1014;SDS011;8170;48.118;11.628;2023-04-03T04:29:57;5.93;;;5.40;;
1014;SDS011;8170;48.118;11.628;2023-04-03T04:31:01;5.70;;;5.15;;
1014;SDS011;8170;48.118;11.628;2023-04-03T04:32:04;6.53;;;5.93;;
1014;SDS011;8170;48.118;11.628;2023-04-03T04:33:07;6.78;;;6.07;;
1014;SDS011;8170;48.118;11.628;2023-04-03T04:34:10;6.80;;;5.88;;
1014;SDS011;8170;48.118;11.628;2023-04-03T04:35:14;6.03;;;5.40;;
1014;SDS011;8170;48.118;11.628;2023-04-03T04:36:20;8.70;;;5.97;;
1014;SDS011;8170;48.118;11.628;2023-04-03T04:37:23;7.75;;;5.20;;
1014;SDS011;8170;48.118;11.628;2023-04-03T04:38:27;6.18;;;5.57;;
1014;SDS011;8170;48.118;11.628;2023-04-03T04:39:29;9.82;;;6.32;;
1014;SDS011;8170;48.118;11.628;2023-04-03T04:40:32;6.45;;;5.85;;
1014;SDS011;8170;48.118;11.628;2023-04-03T04:41:35;8.10;;;5.78;;
1014;SDS011;8170;48.118;11.628;2023-04-03T04:42:40;7.13;;;5.75;;
1014;SDS011;8170;48.118;11.628;2023-04-03T04:43:43;8.60;;;5.78;;
1014;SDS011;8170;48.118;11.628;2023-04-03T04:44:46;6.78;;;5.38;;
1014;SDS011;8170;48.118;11.628;2023-04-03T04:45:57;7.53;;;6.20;;
1014;SDS011;8170;48.118;11.628;2023-04-03T04:47:03;5.80;;;5.10;;
1014;SDS011;8170;48.118;11.628;2023-04-03T04:48:06;6.28;;;5.68;;
1014;SDS011;8170;48.118;11.628;2023-04-03T04:49:09;10.38;;;6.63;;
1014;SDS011;8170;48.118;11.628;2023-04-03T04:50:12;7.05;;;6.35;;
1014;SDS011;8170;48.118;11.628;2023-04-03T04:51:16;8.02;;;5.82;;
1014;SDS011;8170;48.118;11.628;2023-04-03T04:52:18;6.13;;;5.15;;
1014;SDS011;8170;48.118;11.628;2023-04-03T04:53:21;5.80;;;5.30;;
1014;SDS011;8170;48.118;11.628;2023-04-03T04:54:23;6.70;;;6.10;;
1014;SDS011;8170;48.118;11.628;2023-04-03T04:55:27;8.88;;;7.47;;
1014;SDS011;8170;48.118;11.628;2023-04-03T04:56:34;7.75;;;6.25;;
1014;SDS011;8170;48.118;11.628;2023-04-03T04:57:42;6.38;;;5.72;;
1014;SDS011;8170;48.118;11.628;2023-04-03T04:58:45;6.65;;;5.70;;
1014;SDS011;8170;48.118;11.628;2023-04-03T04:59:49;8.00;;;5.63;;
1014;SDS011;8170;48.118;11.628;2023-04-03T05:00:57;8.35;;;6.00;;
1014;SDS011;8170;48.118;11.628;2023-04-03T05:02:00;6.68;;;5.70;;
1014;SDS011;8170;48.118;11.628;2023-04-03T05:03:04;6.15;;;5.55;;
1014;SDS011;8170;48.118;11.628;2023-04-03T05:04:06;10.07;;;6.28;;
1014;SDS011;8170;48.118;11.628;2023-04-03T05:05:12;5.88;;;5.20;;
1014;SDS011;8170;48.118;11.628;2023-04-03T05:06:15;7.63;;;6.90;;
1014;SDS011;8170;48.118;11.628;2023-04-03T05:07:19;6.10;;;5.32;;
1014;SDS011;8170;48.118;11.628;2023-04-03T05:08:22;9.43;;;5.90;;
1014;SDS011;8170;48.118;11.628;2023-04-03T05:09:25;8.13;;;5.63;;
1014;SDS011;8170;48.118;11.628;2023-04-03T05:10:29;6.60;;;5.90;;
1014;SDS011;8170;48.118;11.628;2023-04-03T05:11:32;7.43;;;6.63;;
1014;SDS011;8170;48.118;11.628;2023-04-03T05:12:36;7.30;;;6.43;;
1014;SDS011;8170;48.118;11.628;2023-04-03T05:13:40;9.32;;;5.88;;
1014;SDS011;8170;48.118;11.628;2023-04-03T05:14:43;8.20;;;6.88;;
1014;SDS011;8170;48.118;11.628;2023-04-03T05:15:46;7.03;;;5.20;;
1014;SDS011;8170;48.118;11.628;2023-04-03T05:16:49;6.18;;;5.50;;
1014;SDS011;8170;48.118;11.628;2023-04-03T05:17:55;6.90;;;5.80;;
1014;SDS011;8170;48.118;11.628;2023-04-03T05:18:58;6.63;;;6.00;;
1014;SDS011;8170;48.118;11.628;2023-04-03T05:20:02;6.80;;;6.10;;
1014;SDS011;8170;48.118;11.628;2023-04-03T05:21:06;6.38;;;5.78;;
1014;SDS011;8170;48.118;11.628;2023-04-03T05:22:08;5.90;;;5.28;;
1014;SDS011;8170;48.118;11.628;2023-04-03T05:23:11;9.40;;;6.10;;
1014;SDS011;8170;48.118;11.628;2023-04-03T05:24:14;7.10;;;6.40;;
1014;SDS011;8170;48.118;11.628;2023-04-03T05:25:18;7.35;;;5.80;;
1014;SDS011;8170;48.118;11.628;2023-04-03T05:26:20;6.75;;;6.03;;
1014;SDS011;8170;48.118;11.628;2023-04-03T05:27:24;5.43;;;4.78;;
1014;SDS011;8170;48.118;11.628;2023-04-03T05:28:30;6.43;;;5.65;;
1014;SDS011;8170;48.118;11.628;2023-04-03T05:29:35;7.85;;;6.32;;
1014;SDS011;8170;48.118;11.628;2023-04-03T05:30:38;6.30;;;5.70;;
1014;SDS011;8170;48.118;11.628;2023-04-03T05:31:42;7.68;;;5.82;;
1014;SDS011;8170;48.118;11.628;2023-04-03T05:32:45;5.45;;;4.95;;
1014;SDS011;8170;48.118;11.628;2023-04-03T05:34:05;6.53;;;5.88;;
1014;SDS011;8170;48.118;11.628;2023-04-03T05:35:10;6.88;;;5.55;;
1014;SDS011;8170;48.118;11.628;2023-04-03T05:36:14;8.15;;;5.97;;
1014;SDS011;8170;48.118;11.628;2023-04-03T05:37:21;7.03;;;6.03;;
1014;SDS011;8170;48.118;11.628;2023-04-03T05:38:26;10.45;;;5.57;;
1014;SDS011;8170;48.118;11.628;2023-04-03T05:39:30;5.90;;;5.25;;
1014;SDS011;8170;48.118;11.628;2023-04-03T05:40:35;6.38;;;5.35;;
1014;SDS011;8170;48.118;11.628;2023-04-03T05:41:38;5.82;;;5.15;;
1014;SDS011;8170;48.118;11.628;2023-04-03T05:42:41;8.73;;;6.30;;
1014;SDS011;8170;48.118;11.628;2023-04-03T05:43:43;5.80;;;5.05;;
1014;SDS011;8170;48.118;11.628;2023-04-03T05:44:48;6.85;;;5.50;;
1014;SDS011;8170;48.118;11.628;2023-04-03T05:45:51;7.38;;;5.75;;
1014;SDS011;8170;48.118;11.628;2023-04-03T05:46:57;6.00;;;5.40;;
1014;SDS011;8170;48.118;11.628;2023-04-03T05:47:59;6.57;;;5.95;;
1014;SDS011;8170;48.118;11.628;2023-04-03T05:49:03;7.57;;;5.97;;
1014;SDS011;8170;48.118;11.628;2023-04-03T05:50:09;5.95;;;5.05;;
1014;SDS011;8170;48.118;11.628;2023-04-03T05:51:13;7.35;;;5.85;;
1014;SDS011;8170;48.118;11.628;2023-04-03T05:52:20;6.72;;;5.55;;
1014;SDS011;8170;48.118;11.628;2023-04-03T05:53:26;11.48;;;6.25;;
1014;SDS011;8170;48.118;11.628;2023-04-03T05:54:35;7.47;;;6.25;;
1014;SDS011;8170;48.118;11.628;2023-04-03T05:55:49;6.55;;;5.63;;
1014;SDS011;8170;48.118;11.628;2023-04-03T05:56:52;6.55;;;5.95;;
1014;SDS011;8170;48.118;11.628;2023-04-03T05:57:55;8.05;;;6.13;;
1014;SDS011;8170;48.118;11.628;2023-04-03T05:58:58;7.93;;;5.63;;
1014;SDS011;8170;48.118;11.628;2023-04-03T06:00:03;7.07;;;5.07;;
1014;SDS011;8170;48.118;11.628;2023-04-03T06:01:14;5.93;;;5.15;;
1014;SDS011;8170;48.118;11.628;2023-04-03T06:02:18;6.40;;;5.22;;
1014;SDS011;8170;48.118;11.628;2023-04-03T06:03:23;8.82;;;5.85;;
1014;SDS011;8170;48.118;11.628;2023-04-03T06:04:26;6.53;;;5.80;;
1014;SDS011;8170;48.118;11.628;2023-04-03T06:05:29;6.10;;;5.13;;
1014;SDS011;8170;48.118;11.628;2023-04-03T06:06:45;7.85;;;6.38;;
1014;SDS011;8170;48.118;11.628;2023-04-03T06:07:49;5.93;;;5.32;;
1014;SDS011;8170;48.118;11.628;2023-04-03T06:08:51;6.43;;;5.25;;
1014;SDS011;8170;48.118;11.628;2023-04-03T06:09:55;6.65;;;5.95;;
1014;SDS011;8170;48.118;11.628;2023-04-03T06:10:58;6.60;;;5.45;;
1014;SDS011;8170;48.118;11.628;2023-04-03T06:12:03;6.63;;;5.32;;
1014;SDS011;8170;48.118;11.628;2023-04-03T06:13:06;6.60;;;6.00;;
1014;SDS011;8170;48.118;11.628;2023-04-03T06:14:09;6.07;;;5.43;;
1014;SDS011;8170;48.118;11.628;2023-04-03T06:15:13;5.85;;;5.13;;
1014;SDS011;8170;48.118;11.628;2023-04-03T06:16:18;7.70;;;4.97;;
1014;SDS011;8170;48.118;11.628;2023-04-03T06:17:20;6.40;;;5.80;;
1014;SDS011;8170;48.118;11.628;2023-04-03T06:18:23;5.95;;;5.25;;
1014;SDS011;8170;48.118;11.628;2023-04-03T06:19:27;5.60;;;4.80;;
1014;SDS011;8170;48.118;11.628;2023-04-03T06:20:30;5.90;;;5.30;;
1014;SDS011;8170;48.118;11.628;2023-04-03T06:21:33;8.07;;;5.93;;
1014;SDS011;8170;48.118;11.628;2023-04-03T06:22:37;5.95;;;5.28;;
1014;SDS011;8170;48.118;11.628;2023-04-03T06:23:40;7.75;;;5.88;;
1014;SDS011;8170;48.118;11.628;2023-04-03T06:24:43;6.20;;;5.60;;
1014;SDS011;8170;48.118;11.628;2023-04-03T06:25:46;6.47;;;5.65;;
1014;SDS011;8170;48.118;11.628;2023-04-03T06:26:49;6.22;;;5.63;;
1014;SDS011;8170;48.118;11.628;2023-04-03T06:27:54;7.07;;;5.90;;
1014;SDS011;8170;48.118;11.628;2023-04-03T06:28:57;6.45;;;5.03;;
1014;SDS011;8170;48.118;11.628;2023-04-03T06:30:00;5.97;;;5.32;;